createdAt,value
2023-03-24T00:01:09.794Z,3.83
2023-03-24T00:03:37.520Z,4.37
2023-03-24T00:06:06.248Z,1.87
2023-03-24T00:08:35.881Z,1.67
2023-03-24T00:11:07.764Z,2.77
2023-03-24T00:13:36.299Z,2.00
2023-03-24T00:16:03.881Z,3.37
2023-03-24T00:18:31.522Z,3.60
2023-03-24T00:20:59.068Z,3.17
2023-03-24T00:23:27.455Z,1.73
2023-03-24T00:26:05.759Z,3.00
2023-03-24T00:28:34.581Z,2.43
2023-03-24T00:31:02.246Z,2.63
2023-03-24T00:33:30.374Z,3.97
2023-03-24T00:35:58.171Z,2.40
2023-03-24T00:38:26.022Z,5.70
2023-03-24T00:40:53.767Z,3.03
2023-03-24T00:43:21.687Z,2.60
2023-03-24T00:45:49.313Z,4.20
2023-03-24T00:48:17.844Z,4.20
2023-03-24T00:50:46.137Z,2.53
2023-03-24T00:53:15.165Z,4.67
2023-03-24T00:55:43.391Z,2.37
2023-03-24T00:58:10.981Z,1.93
2023-03-24T01:00:38.581Z,3.57
2023-03-24T01:03:06.284Z,3.47
2023-03-24T01:05:33.874Z,1.80
2023-03-24T01:08:01.743Z,2.33
2023-03-24T01:10:29.605Z,2.03
2023-03-24T01:12:58.731Z,2.40
2023-03-24T01:15:28.499Z,3.77
2023-03-24T01:17:56.526Z,4.77
2023-03-24T01:20:24.667Z,2.47
2023-03-24T01:22:52.663Z,2.47
2023-03-24T01:25:21.866Z,2.50
2023-03-24T01:27:50.269Z,4.43
2023-03-24T01:30:19.025Z,2.53
2023-03-24T01:32:46.724Z,3.33
2023-03-24T01:35:14.505Z,4.00
2023-03-24T01:37:42.097Z,3.03
2023-03-24T01:40:10.309Z,3.90
2023-03-24T01:42:39.035Z,2.37
2023-03-24T01:45:25.158Z,3.47
2023-03-24T01:47:52.791Z,4.47
2023-03-24T01:50:20.691Z,2.63
2023-03-24T01:52:48.289Z,2.40
2023-03-24T01:55:17.986Z,3.20
2023-03-24T01:57:48.353Z,2.50
2023-03-24T02:00:17.152Z,3.53
2023-03-24T02:02:53.814Z,3.20
2023-03-24T02:05:23.656Z,3.67
2023-03-24T02:07:51.241Z,3.67
2023-03-24T02:10:19.786Z,3.70
2023-03-24T02:12:47.393Z,3.00
2023-03-24T02:15:17.670Z,3.43
2023-03-24T02:17:51.241Z,4.23
2023-03-24T02:20:18.809Z,3.83
2023-03-24T02:22:55.340Z,3.77
2023-03-24T02:25:46.031Z,3.00
2023-03-24T02:28:28.311Z,2.73
2023-03-24T02:31:01.938Z,5.70
2023-03-24T02:33:48.416Z,3.43
2023-03-24T02:36:22.009Z,6.23
2023-03-24T02:38:55.529Z,3.23
2023-03-24T02:41:23.055Z,4.43
2023-03-24T02:43:58.983Z,2.83
2023-03-24T02:46:45.231Z,3.07
2023-03-24T02:49:31.624Z,4.00
2023-03-24T02:52:02.661Z,3.93
2023-03-24T02:54:50.604Z,2.93
2023-03-24T02:57:23.671Z,5.93
2023-03-24T02:59:57.760Z,3.40
2023-03-24T03:02:31.009Z,2.37
2023-03-24T03:05:03.658Z,3.50
2023-03-24T03:07:33.068Z,2.90
2023-03-24T03:10:00.603Z,2.70
2023-03-24T03:12:30.757Z,3.70
2023-03-24T03:15:02.399Z,5.50
2023-03-24T03:17:33.686Z,6.90
2023-03-24T03:20:03.976Z,2.77
2023-03-24T03:22:34.337Z,2.40
2023-03-24T03:25:02.627Z,2.53
2023-03-24T03:27:31.751Z,2.23
2023-03-24T03:30:08.504Z,2.73
2023-03-24T03:32:38.745Z,3.70
2023-03-24T03:35:13.709Z,2.50
2023-03-24T03:37:45.976Z,2.83
2023-03-24T03:40:17.775Z,2.57
2023-03-24T03:42:45.849Z,2.43
2023-03-24T03:45:13.616Z,2.83
2023-03-24T03:47:41.267Z,2.50
2023-03-24T03:50:09.571Z,2.80
2023-03-24T03:52:40.458Z,3.07
2023-03-24T03:55:09.179Z,2.13
2023-03-24T03:57:36.950Z,2.80
2023-03-24T04:00:05.461Z,4.07
2023-03-24T04:02:42.221Z,3.23
2023-03-24T04:05:24.960Z,2.93
2023-03-24T04:08:18.857Z,9.10
2023-03-24T04:10:46.440Z,2.40
2023-03-24T04:13:29.331Z,3.20
2023-03-24T04:16:15.419Z,4.10
2023-03-24T04:18:43.004Z,5.30
2023-03-24T04:21:25.677Z,3.97
2023-03-24T04:24:02.096Z,3.30
2023-03-24T04:26:37.638Z,2.93
2023-03-24T04:29:16.841Z,2.63
2023-03-24T04:31:44.485Z,2.77
2023-03-24T04:34:26.149Z,5.00
2023-03-24T04:36:59.739Z,3.07
2023-03-24T04:39:28.655Z,3.47
2023-03-24T04:41:57.908Z,2.57
2023-03-24T04:44:25.888Z,3.20
2023-03-24T04:46:56.288Z,3.50
2023-03-24T04:49:23.859Z,4.80
2023-03-24T04:51:51.755Z,2.30
2023-03-24T04:54:19.879Z,3.33
2023-03-24T04:56:49.001Z,3.20
2023-03-24T04:59:16.843Z,2.67
2023-03-24T05:01:45.179Z,1.83
2023-03-24T05:04:12.747Z,1.73
2023-03-24T05:06:40.339Z,2.93
2023-03-24T05:09:07.918Z,3.13
2023-03-24T05:11:35.415Z,2.20
2023-03-24T05:14:02.955Z,3.20
2023-03-24T05:16:30.531Z,3.83
2023-03-24T05:18:58.299Z,4.20
2023-03-24T05:21:26.532Z,1.60
2023-03-24T05:23:54.393Z,3.73
2023-03-24T05:26:21.913Z,2.53
2023-03-24T05:28:49.600Z,2.47
2023-03-24T05:31:17.202Z,1.10
2023-03-24T05:33:44.930Z,1.83
2023-03-24T05:36:12.930Z,4.53
2023-03-24T05:38:40.641Z,2.27
2023-03-24T05:41:08.184Z,4.50
2023-03-24T05:43:35.729Z,3.07
2023-03-24T05:46:03.332Z,1.63
2023-03-24T05:48:30.916Z,4.80
2023-03-24T05:50:58.431Z,7.27
2023-03-24T05:53:25.978Z,4.00
2023-03-24T05:55:53.517Z,3.17
2023-03-24T05:58:21.101Z,6.13
2023-03-24T06:00:48.679Z,6.87
2023-03-24T06:03:16.301Z,9.13
2023-03-24T06:05:44.412Z,8.10
2023-03-24T06:08:12.650Z,7.20
2023-03-24T06:10:40.213Z,7.17
2023-03-24T06:13:07.745Z,10.97
2023-03-24T06:15:35.534Z,8.83
2023-03-24T06:18:03.256Z,6.17
2023-03-24T06:20:30.798Z,7.87
2023-03-24T06:22:58.393Z,8.53
2023-03-24T06:25:25.944Z,4.63
2023-03-24T06:27:53.468Z,9.53
2023-03-24T06:30:21.078Z,14.60
2023-03-24T06:32:48.731Z,7.90
2023-03-24T06:35:16.764Z,7.07
2023-03-24T06:37:44.793Z,6.70
2023-03-24T06:40:12.869Z,6.10
2023-03-24T06:42:40.424Z,6.13
2023-03-24T06:45:08.401Z,7.37
2023-03-24T06:47:36.172Z,6.20
2023-03-24T06:50:04.240Z,6.80
2023-03-24T06:52:31.789Z,8.03
2023-03-24T06:54:59.325Z,5.60
2023-03-24T06:57:26.909Z,5.27
2023-03-24T06:59:54.424Z,9.93
2023-03-24T07:02:22.383Z,10.47
2023-03-24T07:04:49.916Z,6.00
2023-03-24T07:09:47.960Z,5.83
2023-03-24T07:12:15.462Z,5.03
2023-03-24T07:14:43.059Z,7.23
2023-03-24T07:17:10.551Z,12.83
2023-03-24T07:19:38.124Z,8.20
2023-03-24T07:22:05.654Z,7.37
2023-03-24T07:24:33.224Z,6.23
2023-03-24T07:27:00.738Z,4.07
2023-03-24T07:29:28.458Z,9.30
2023-03-24T07:31:56.117Z,5.20
2023-03-24T07:34:23.772Z,5.43
2023-03-24T07:36:51.319Z,5.37
2023-03-24T07:39:18.934Z,11.83
2023-03-24T07:41:46.460Z,7.43
2023-03-24T07:44:14.082Z,10.20
2023-03-24T07:46:41.583Z,9.07
2023-03-24T07:49:18.886Z,6.47
2023-03-24T07:51:47.493Z,8.37
2023-03-24T07:54:15.044Z,7.07
2023-03-24T07:56:42.632Z,7.43
2023-03-24T07:59:10.343Z,9.43
2023-03-24T08:01:38.400Z,9.37
2023-03-24T08:04:06.360Z,11.67
2023-03-24T08:06:34.299Z,8.13
2023-03-24T08:09:01.804Z,9.90
2023-03-24T08:11:29.446Z,11.37
2023-03-24T08:13:57.073Z,11.57
2023-03-24T08:16:24.779Z,13.33
2023-03-24T08:18:52.338Z,12.13
2023-03-24T08:21:19.936Z,12.63
2023-03-24T08:23:47.476Z,11.60
2023-03-24T08:26:15.072Z,6.73
2023-03-24T08:28:42.920Z,10.13
2023-03-24T08:31:10.551Z,7.60
2023-03-24T08:33:38.123Z,12.33
2023-03-24T08:36:05.933Z,8.93
2023-03-24T08:38:33.513Z,10.73
2023-03-24T08:41:02.238Z,9.67
2023-03-24T08:43:30.708Z,9.53
2023-03-24T08:45:58.864Z,11.37
2023-03-24T08:48:26.541Z,7.50
2023-03-24T08:50:54.408Z,8.77
2023-03-24T08:53:21.940Z,9.43
2023-03-24T08:55:49.634Z,9.67
2023-03-24T08:58:18.688Z,10.87
2023-03-24T09:00:46.945Z,12.83
2023-03-24T09:03:15.977Z,11.80
2023-03-24T09:05:44.994Z,9.80
2023-03-24T09:08:13.524Z,12.27
2023-03-24T09:10:41.860Z,11.33
2023-03-24T09:13:09.772Z,7.40
2023-03-24T09:15:37.407Z,11.50
2023-03-24T09:18:05.155Z,10.10
2023-03-24T09:20:32.985Z,11.10
2023-03-24T09:23:00.494Z,13.57
2023-03-24T09:25:28.184Z,5.33
2023-03-24T09:27:55.695Z,8.27
2023-03-24T09:30:23.336Z,8.67
2023-03-24T09:32:50.994Z,10.07
2023-03-24T09:35:18.680Z,10.07
2023-03-24T09:37:46.401Z,7.53
2023-03-24T09:40:40.275Z,8.50
2023-03-24T09:43:23.087Z,12.93
2023-03-24T09:45:51.840Z,15.10
2023-03-24T09:48:39.605Z,8.00
2023-03-24T09:51:22.978Z,5.83
2023-03-24T09:53:53.405Z,8.13
2023-03-24T09:56:22.908Z,9.40
2023-03-24T09:58:53.977Z,13.63
2023-03-24T10:01:21.803Z,9.13
2023-03-24T10:03:49.408Z,8.67
2023-03-24T10:06:20.594Z,8.40
2023-03-24T10:08:54.833Z,7.47
2023-03-24T10:11:51.783Z,11.70
2023-03-24T10:14:27.416Z,9.07
2023-03-24T10:16:58.702Z,8.53
2023-03-24T10:19:26.296Z,6.37
2023-03-24T10:22:02.325Z,12.10
2023-03-24T10:24:32.870Z,8.20
2023-03-24T10:27:19.043Z,7.70
2023-03-24T10:29:47.825Z,8.90
2023-03-24T10:32:15.375Z,7.63
2023-03-24T10:34:44.968Z,9.03
2023-03-24T10:37:12.717Z,10.27
2023-03-24T10:39:44.845Z,5.63
2023-03-24T10:42:20.181Z,6.27
2023-03-24T10:44:48.994Z,5.13
2023-03-24T10:47:18.673Z,8.67
2023-03-24T10:49:54.131Z,6.17
2023-03-24T10:52:21.673Z,13.43
2023-03-24T10:54:56.332Z,11.27
2023-03-24T10:57:24.477Z,5.13
2023-03-24T10:59:52.016Z,4.60
2023-03-24T11:02:21.801Z,7.60
2023-03-24T11:04:59.615Z,6.10
2023-03-24T11:07:33.207Z,14.13
2023-03-24T11:10:02.937Z,9.33
2023-03-24T11:12:34.632Z,9.67
2023-03-24T11:15:20.406Z,10.17
2023-03-24T11:17:57.078Z,5.07
2023-03-24T11:20:32.681Z,4.53
2023-03-24T11:23:08.026Z,7.20
2023-03-24T11:25:40.048Z,8.70
2023-03-24T11:28:16.114Z,9.53
2023-03-24T11:30:51.037Z,5.00
2023-03-24T11:33:20.971Z,7.93
2023-03-24T11:36:05.835Z,4.10
2023-03-24T11:38:35.207Z,6.93
2023-03-24T11:41:03.498Z,6.03
2023-03-24T11:43:31.462Z,8.77
2023-03-24T11:46:01.887Z,4.17
2023-03-24T11:48:40.455Z,5.77
2023-03-24T11:51:10.261Z,5.70
2023-03-24T11:53:49.710Z,7.17
2023-03-24T11:56:20.069Z,4.50
2023-03-24T11:58:49.365Z,4.60
2023-03-24T12:01:37.945Z,9.30
2023-03-24T12:04:25.068Z,5.57
2023-03-24T12:07:11.594Z,7.40
2023-03-24T12:09:45.065Z,4.50
2023-03-24T12:12:12.606Z,7.03
2023-03-24T12:15:00.417Z,11.17
2023-03-24T12:17:34.857Z,7.87
2023-03-24T12:20:02.465Z,7.07
2023-03-24T12:22:48.047Z,7.17
2023-03-24T12:25:34.232Z,6.03
2023-03-24T12:28:10.811Z,7.07
2023-03-24T12:30:43.660Z,9.73
2023-03-24T12:33:11.208Z,6.83
2023-03-24T12:35:39.643Z,6.97
2023-03-24T12:38:26.078Z,3.63
2023-03-24T12:41:12.420Z,4.73
2023-03-24T12:43:58.871Z,7.07
2023-03-24T12:46:46.714Z,10.27
2023-03-24T12:49:34.250Z,5.23
2023-03-24T12:52:07.870Z,5.13
2023-03-24T12:54:42.373Z,9.33
2023-03-24T12:57:12.926Z,7.90
2023-03-24T12:59:44.523Z,7.33
2023-03-24T13:02:12.258Z,6.03
2023-03-24T13:04:42.166Z,4.53
2023-03-24T13:07:10.785Z,8.23
2023-03-24T13:09:44.514Z,3.33
2023-03-24T13:12:23.177Z,4.53
2023-03-24T13:15:09.748Z,5.68
2023-03-24T13:17:40.013Z,5.10
2023-03-24T13:20:12.802Z,8.60
2023-03-24T13:22:40.759Z,6.60
2023-03-24T13:25:27.438Z,9.60
2023-03-24T13:27:58.674Z,6.50
2023-03-24T13:30:37.022Z,7.17
2023-03-24T13:33:18.716Z,5.97
2023-03-24T13:35:55.497Z,3.50
2023-03-24T13:38:27.795Z,6.77
2023-03-24T13:40:56.447Z,6.77
2023-03-24T13:43:29.868Z,4.23
2023-03-24T13:46:07.935Z,7.17
2023-03-24T13:48:38.481Z,4.63
2023-03-24T13:51:14.039Z,5.10
2023-03-24T13:53:44.843Z,5.33
2023-03-24T13:56:21.554Z,7.43
2023-03-24T13:58:51.351Z,5.20
2023-03-24T14:01:30.970Z,5.50
2023-03-24T14:04:17.679Z,3.87
2023-03-24T14:06:55.501Z,5.20
2023-03-24T14:09:30.137Z,3.60
2023-03-24T14:11:57.663Z,5.07
2023-03-24T14:14:26.390Z,2.00
2023-03-24T14:17:02.892Z,6.67
2023-03-24T14:19:31.892Z,3.43
2023-03-24T14:22:05.380Z,2.70
2023-03-24T14:24:33.095Z,4.40
2023-03-24T14:27:00.661Z,2.93
2023-03-24T14:29:49.861Z,4.17
2023-03-24T14:32:20.583Z,7.03
2023-03-24T14:34:58.435Z,5.30
2023-03-24T14:37:28.011Z,5.23
2023-03-24T14:39:56.923Z,5.33
2023-03-24T14:42:33.673Z,5.93
2023-03-24T14:45:02.610Z,5.60
2023-03-24T14:47:32.222Z,2.87
2023-03-24T14:50:02.020Z,4.77
2023-03-24T14:52:34.544Z,5.83
2023-03-24T14:55:12.033Z,4.87
2023-03-24T14:57:44.719Z,6.43
2023-03-24T15:00:23.284Z,3.13
2023-03-24T15:02:52.800Z,4.87
2023-03-24T15:05:23.560Z,5.27
2023-03-24T15:08:09.837Z,4.40
2023-03-24T15:10:49.950Z,4.03
2023-03-24T15:13:29.842Z,3.53
2023-03-24T15:15:57.823Z,4.23
2023-03-24T15:18:25.879Z,4.07
2023-03-24T15:20:54.044Z,2.80
2023-03-24T15:23:26.221Z,3.97
2023-03-24T15:25:54.668Z,5.50
2023-03-24T15:28:28.217Z,7.23
2023-03-24T15:30:59.509Z,5.57
2023-03-24T15:33:27.112Z,5.10
2023-03-24T15:35:58.932Z,6.30
2023-03-24T15:38:30.740Z,6.97
2023-03-24T15:41:00.107Z,5.23
2023-03-24T15:43:27.912Z,5.30
2023-03-24T15:46:08.700Z,6.50
2023-03-24T15:48:39.186Z,5.07
2023-03-24T15:51:07.737Z,2.80
2023-03-24T15:53:41.453Z,0.70
2023-03-24T15:56:20.957Z,3.23
2023-03-24T15:58:51.650Z,1.43
2023-03-24T16:01:21.614Z,2.40
2023-03-24T16:03:49.278Z,1.53
2023-03-24T16:06:26.241Z,2.00
2023-03-24T16:08:53.911Z,1.33
2023-03-24T16:11:21.868Z,2.50
2023-03-24T16:13:49.499Z,2.10
2023-03-24T16:16:17.181Z,2.03
2023-03-24T16:18:45.926Z,1.37
2023-03-24T16:21:23.695Z,1.53
2023-03-24T16:23:52.231Z,2.90
2023-03-24T16:26:20.877Z,1.80
2023-03-24T16:28:48.982Z,2.70
2023-03-24T16:31:24.747Z,1.80
2023-03-24T16:33:52.715Z,1.73
2023-03-24T16:36:20.789Z,3.40
2023-03-24T16:38:49.070Z,1.57
2023-03-24T16:41:16.688Z,4.10
2023-03-24T16:43:44.746Z,2.97
2023-03-24T16:46:16.584Z,2.33
2023-03-24T16:48:44.268Z,6.00
2023-03-24T16:51:15.380Z,2.87
2023-03-24T16:53:43.809Z,2.37
2023-03-24T16:56:13.652Z,3.23
2023-03-24T16:58:41.344Z,2.07
2023-03-24T17:01:15.796Z,2.53
2023-03-24T17:03:43.487Z,2.87
2023-03-24T17:06:11.804Z,2.57
2023-03-24T17:08:39.375Z,3.20
2023-03-24T17:11:06.914Z,4.37
2023-03-24T17:13:34.517Z,1.53
2023-03-24T17:16:02.067Z,2.00
2023-03-24T17:18:29.646Z,2.10
2023-03-24T17:20:57.185Z,3.97
2023-03-24T17:23:25.899Z,1.10
2023-03-24T17:25:53.410Z,4.00
2023-03-24T17:28:20.952Z,2.90
2023-03-24T17:30:48.581Z,3.97
2023-03-24T17:33:16.351Z,1.50
2023-03-24T17:35:44.653Z,4.80
2023-03-24T17:38:13.864Z,3.10
2023-03-24T17:40:41.452Z,4.10
2023-03-24T17:43:09.094Z,2.83
2023-03-24T17:45:36.588Z,4.27
2023-03-24T17:48:04.247Z,2.73
2023-03-24T17:50:31.762Z,6.10
2023-03-24T17:52:59.469Z,4.60
2023-03-24T17:55:27.309Z,5.17
2023-03-24T17:57:54.831Z,7.23
2023-03-24T18:00:22.489Z,7.37
2023-03-24T18:02:50.099Z,3.83
2023-03-24T18:05:17.655Z,5.53
2023-03-24T18:07:45.268Z,3.13
2023-03-24T18:10:12.903Z,6.20
2023-03-24T18:12:40.550Z,2.80
2023-03-24T18:15:08.317Z,4.67
2023-03-24T18:17:35.889Z,1.93
2023-03-24T18:20:03.555Z,8.10
2023-03-24T18:22:31.195Z,3.07
2023-03-24T18:24:58.772Z,7.37
2023-03-24T18:27:26.317Z,4.93
2023-03-24T18:29:54.069Z,2.43
2023-03-24T18:32:21.882Z,3.33
2023-03-24T18:34:49.386Z,3.73
2023-03-24T18:37:16.937Z,2.97
2023-03-24T18:39:44.410Z,4.13
2023-03-24T18:42:11.937Z,6.00
2023-03-24T18:44:39.454Z,4.07
2023-03-24T18:47:07.026Z,2.77
2023-03-24T18:49:34.683Z,5.87
2023-03-24T18:52:02.469Z,4.80
2023-03-24T18:54:30.038Z,3.50
2023-03-24T18:56:57.675Z,5.50
2023-03-24T18:59:25.256Z,4.43
2023-03-24T19:01:52.849Z,4.90
2023-03-24T19:04:20.424Z,5.13
2023-03-24T19:06:48.031Z,7.17
2023-03-24T19:09:15.707Z,3.97
2023-03-24T19:11:43.573Z,6.70
2023-03-24T19:14:11.139Z,3.57
2023-03-24T19:16:38.772Z,6.77
2023-03-24T19:19:06.329Z,3.67
2023-03-24T19:21:33.910Z,4.20
2023-03-24T19:24:01.451Z,4.00
2023-03-24T19:26:29.067Z,6.57
2023-03-24T19:28:56.613Z,5.27
2023-03-24T19:31:24.239Z,5.27
2023-03-24T19:33:51.846Z,4.67
2023-03-24T19:36:19.630Z,4.47
2023-03-24T19:38:47.359Z,8.60
2023-03-24T19:41:15.530Z,8.37
2023-03-24T19:43:43.216Z,3.27
2023-03-24T19:46:10.898Z,5.37
2023-03-24T19:48:38.418Z,2.30
2023-03-24T19:51:06.161Z,1.27
2023-03-24T19:53:33.826Z,1.87
2023-03-24T19:56:01.493Z,2.00
2023-03-24T19:58:29.046Z,1.83
2023-03-24T20:00:56.603Z,1.87
2023-03-24T20:03:24.213Z,2.00
2023-03-24T20:05:52.018Z,2.17
2023-03-24T20:08:19.692Z,3.63
2023-03-24T20:10:47.942Z,3.87
2023-03-24T20:13:15.557Z,0.80
2023-03-24T20:15:43.059Z,1.57
2023-03-24T20:18:10.672Z,0.83
2023-03-24T20:20:38.361Z,1.90
2023-03-24T20:23:06.028Z,1.73
2023-03-24T20:25:33.581Z,1.57
2023-03-24T20:28:01.111Z,2.03
2023-03-24T20:30:28.709Z,1.63
2023-03-24T20:32:57.061Z,3.03
2023-03-24T20:35:25.237Z,2.57
2023-03-24T20:37:52.784Z,1.57
2023-03-24T20:40:20.393Z,1.80
2023-03-24T20:42:47.916Z,2.30
2023-03-24T20:45:15.508Z,3.77
2023-03-24T20:47:43.119Z,2.50
2023-03-24T20:50:10.972Z,3.07
2023-03-24T20:52:38.915Z,2.13
2023-03-24T20:55:06.865Z,2.20
2023-03-24T20:57:34.467Z,4.13
2023-03-24T21:00:02.126Z,3.10
2023-03-24T21:02:30.041Z,1.63
2023-03-24T21:04:57.871Z,3.17
2023-03-24T21:07:25.434Z,2.07
2023-03-24T21:09:53.092Z,2.40
2023-03-24T21:12:20.665Z,4.80
2023-03-24T21:14:48.188Z,2.13
2023-03-24T21:17:15.735Z,4.53
2023-03-24T21:19:43.368Z,2.90
2023-03-24T21:22:10.852Z,3.87
2023-03-24T21:24:38.401Z,4.10
2023-03-24T21:27:05.953Z,1.97
2023-03-24T21:29:33.508Z,5.83
2023-03-24T21:32:01.027Z,1.47
2023-03-24T21:34:28.571Z,4.53
2023-03-24T21:36:56.104Z,3.67
2023-03-24T21:39:23.681Z,1.70
2023-03-24T21:41:51.168Z,1.97
2023-03-24T21:44:18.854Z,5.53
2023-03-24T21:46:46.374Z,2.30
2023-03-24T21:49:13.938Z,3.60
2023-03-24T21:51:41.541Z,2.10
2023-03-24T21:54:09.142Z,1.97
2023-03-24T21:56:36.785Z,2.77
2023-03-24T21:59:04.472Z,2.73
2023-03-24T22:01:32.098Z,1.33
2023-03-24T22:03:59.714Z,1.30
2023-03-24T22:06:27.322Z,2.17
2023-03-24T22:08:54.953Z,0.87
2023-03-24T22:11:22.521Z,1.70
2023-03-24T22:13:50.166Z,1.93
2023-03-24T22:16:17.665Z,2.77
2023-03-24T22:18:45.243Z,1.17
2023-03-24T22:21:12.835Z,3.07
2023-03-24T22:23:40.829Z,3.00
2023-03-24T22:26:13.010Z,1.67
2023-03-24T22:28:40.912Z,1.23
2023-03-24T22:31:09.889Z,1.93
2023-03-24T22:33:37.783Z,2.77
2023-03-24T22:36:05.958Z,3.37
2023-03-24T22:38:33.744Z,1.90
2023-03-24T22:41:03.175Z,4.83
2023-03-24T22:43:30.855Z,3.70
2023-03-24T22:45:58.514Z,1.37
2023-03-24T22:48:26.192Z,2.17
2023-03-24T22:50:54.283Z,3.63
2023-03-24T22:53:21.861Z,3.67
2023-03-24T22:55:49.626Z,6.77
2023-03-24T22:58:17.461Z,3.03
2023-03-24T23:00:45.766Z,3.73
2023-03-24T23:03:13.441Z,2.17
2023-03-24T23:05:45.166Z,0.80
2023-03-24T23:08:13.276Z,2.10
2023-03-24T23:10:41.838Z,2.83
2023-03-24T23:13:09.447Z,2.67
2023-03-24T23:15:37.369Z,2.63
2023-03-24T23:18:06.732Z,3.97
2023-03-24T23:20:34.532Z,3.53
2023-03-24T23:23:02.856Z,2.27
2023-03-24T23:25:31.966Z,2.90
2023-03-24T23:27:59.533Z,2.97
2023-03-24T23:30:28.275Z,6.33
2023-03-24T23:32:55.864Z,4.27
2023-03-24T23:35:23.548Z,2.37
2023-03-24T23:37:51.140Z,2.00
2023-03-24T23:40:18.788Z,4.73
2023-03-24T23:42:47.406Z,2.50
2023-03-24T23:45:16.161Z,3.17
2023-03-24T23:47:44.802Z,2.23
2023-03-24T23:50:12.688Z,1.40
2023-03-24T23:52:40.198Z,6.47
2023-03-24T23:55:08.596Z,3.00
2023-03-24T23:57:36.112Z,5.13
